Terminal Aerodrome Forecast
Issued by NWS

Home | Current Version | Previous Version | Text Only | Print | Product List | Glossary Off
Versions: 1 2 3 4 5 6 7 8 9 10 11 12 13 14 15 16 17 18 19 20 21 22 23 24 25 26 27 28 29 30 31 32 33 34 35

000
FTUS43 KLOT 011500 AAB
TAFMDW
TAF AMD
KMDW 011556Z 0116/0212 14010KT P6SM FEW030 SCT250
     FM011700 14011G15KT P6SM SCT250
     FM020000 15008KT P6SM SCT150 BKN250
     FM020500 16007KT P6SM VCSH SCT050 BKN120
     FM020700 16006KT 6SM -SHRA BKN050 PROB30 0209/0212 5SM -TSRA
      BKN035CB=

USA.gov is the U.S. government's official web portal to all federal, state and local government web resources and services.